Time;durP1;ratioP1;P1;durP2;ratioP2;P2;SDS_P1;SDS_P2;PMS_P1;PMS_P2;Temp;Humidity;BMP_temperature;BMP_pressure;BME280_temperature;BME280_humidity;BME280_pressure;Samples;Min_cycle;Max_cycle;Signal;HPM_P1;HPM_P2
2022/07/18 00:00:06;;;;;;;2.53;1.02;;;;;;;14.49;50.09;100073.03;4333624;33;34549;-88
2022/07/18 00:02:34;;;;;;;1.45;1.10;;;;;;;14.66;48.96;100077.16;4334875;33;33663;-88
2022/07/18 00:05:04;;;;;;;2.00;1.10;;;;;;;15.13;48.70;100078.13;4346215;33;34679;-88
2022/07/18 00:07:32;;;;;;;3.17;1.42;;;;;;;14.46;49.90;100080.06;4317518;33;34942;-88
2022/07/18 00:10:00;;;;;;;1.23;1.08;;;;;;;13.94;51.33;100071.16;4346194;33;35108;-89
2022/07/18 00:12:29;;;;;;;3.37;1.30;;;;;;;14.57;49.42;100068.50;4346407;33;34062;-89
2022/07/18 00:14:57;;;;;;;2.47;1.17;;;;;;;15.33;47.23;100081.25;4332869;33;34301;-88
2022/07/18 00:17:25;;;;;;;3.45;0.95;;;;;;;15.27;46.74;100075.28;4347834;33;34930;-89
2022/07/18 00:19:54;;;;;;;2.53;1.20;;;;;;;15.05;47.99;100080.87;4320672;33;33638;-89
2022/07/18 00:22:22;;;;;;;2.12;1.02;;;;;;;15.22;47.37;100088.47;4346243;33;33553;-89
2022/07/18 00:24:50;;;;;;;1.35;1.00;;;;;;;15.34;47.48;100088.25;4346073;33;33960;-88
2022/07/18 00:27:19;;;;;;;2.53;1.17;;;;;;;15.19;47.42;100085.03;4346093;33;35771;-89
2022/07/18 00:29:47;;;;;;;1.58;1.02;;;;;;;15.30;47.73;100088.31;4332773;33;34340;-89
2022/07/18 00:32:15;;;;;;;1.92;1.02;;;;;;;15.48;47.11;100089.75;4347630;33;34383;-88
2022/07/18 00:34:43;;;;;;;1.83;1.27;;;;;;;15.49;47.27;100086.22;4345758;33;33874;-88
2022/07/18 00:37:11;;;;;;;4.15;1.70;;;;;;;14.87;48.59;100087.28;4334208;33;34917;-89
2022/07/18 00:39:40;;;;;;;2.62;1.30;;;;;;;14.52;49.31;100080.81;4344237;33;34563;-88
2022/07/18 00:42:08;;;;;;;2.42;1.08;;;;;;;14.74;48.81;100091.87;4320957;33;34353;-88
2022/07/18 00:44:36;;;;;;;1.37;0.98;;;;;;;14.74;49.10;100091.87;4345818;33;33664;-89
2022/07/18 00:47:05;;;;;;;3.25;1.10;;;;;;;15.17;47.63;100087.66;4334345;33;35912;-88
2022/07/18 00:49:33;;;;;;;1.83;1.20;;;;;;;14.67;48.77;100086.78;4332492;33;34046;-88
2022/07/18 00:52:01;;;;;;;1.60;0.93;;;;;;;13.69;52.11;100092.38;4332723;33;33741;-88
2022/07/18 00:54:32;;;;;;;2.05;1.20;;;;;;;14.86;48.16;100085.59;4320354;33;33962;-88
2022/07/18 00:57:00;;;;;;;1.60;1.08;;;;;;;14.58;49.67;100079.91;4322599;33;33988;-89
2022/07/18 01:02:16;;;;;;;2.42;1.30;;;;;;;13.41;52.58;100092.72;4338341;33;33576;-88
2022/07/18 01:04:44;;;;;;;4.18;1.25;;;;;;;13.90;50.61;100085.19;4334656;33;34618;-88
2022/07/18 01:07:13;;;;;;;1.65;1.00;;;;;;;15.00;48.47;100077.50;4346838;33;35766;-88
2022/07/18 01:09:41;;;;;;;2.58;1.25;;;;;;;14.84;48.68;100086.47;4329761;33;34440;-88
2022/07/18 01:12:10;;;;;;;1.92;1.10;;;;;;;14.92;48.49;100080.22;4343946;33;33532;-89
2022/07/18 01:14:38;;;;;;;1.50;1.00;;;;;;;14.53;49.34;100079.09;4334389;33;33909;-88
2022/07/18 01:17:15;;;;;;;1.02;0.93;;;;;;;14.56;49.63;100077.28;4349210;33;35413;-88
2022/07/18 01:19:44;;;;;;;1.42;1.08;;;;;;;15.13;46.84;100078.13;4334638;33;34898;-88
2022/07/18 01:22:14;;;;;;;1.27;0.98;;;;;;;14.80;48.09;100077.81;4336070;33;34280;-88
2022/07/18 01:24:43;;;;;;;2.35;1.15;;;;;;;14.97;47.69;100080.16;4346266;33;32985;-89
2022/07/18 01:27:16;;;;;;;0.82;0.80;;;;;;;14.45;49.63;100084.41;4334605;33;34916;-88
2022/07/18 01:29:46;;;;;;;2.35;1.23;;;;;;;14.37;49.08;100081.91;4334472;33;34247;-90
2022/07/18 01:32:15;;;;;;;1.90;0.90;;;;;;;14.33;48.84;100089.84;4349158;33;33572;-87
2022/07/18 01:34:46;;;;;;;1.20;1.10;;;;;;;14.37;49.26;100092.41;4332327;33;33929;-88
2022/07/18 01:37:18;;;;;;;1.37;1.00;;;;;;;14.20;49.60;100095.25;4334591;33;35246;-88
2022/07/18 01:39:46;;;;;;;1.40;1.10;;;;;;;14.20;49.34;100089.13;4330768;33;34387;-88
2022/07/18 01:42:15;;;;;;;1.10;1.00;;;;;;;14.68;47.74;100096.34;4339592;33;33576;-89
2022/07/18 01:44:45;;;;;;;1.92;1.17;;;;;;;14.44;48.93;100087.09;4322051;33;34043;-89
2022/07/18 01:47:13;;;;;;;1.83;1.15;;;;;;;14.25;48.78;100089.09;4323845;33;35794;-88
2022/07/18 01:49:42;;;;;;;4.20;1.00;;;;;;;14.46;48.80;100086.16;4333989;33;35148;-89
2022/07/18 01:52:10;;;;;;;0.98;0.90;;;;;;;14.34;48.60;100084.56;4350021;33;33555;-87
2022/07/18 01:54:38;;;;;;;2.05;1.50;;;;;;;14.22;48.40;100087.38;4345874;33;33951;-88
2022/07/18 01:57:07;;;;;;;1.45;1.10;;;;;;;14.21;49.79;100091.75;4334097;33;34343;-88
2022/07/18 01:59:35;;;;;;;4.10;1.50;;;;;;;13.76;50.25;100088.81;4346125;33;34472;-88
2022/07/18 02:02:05;;;;;;;1.33;1.05;;;;;;;14.48;48.82;100084.37;4334513;33;34038;-87
2022/07/18 02:07:22;;;;;;;3.30;1.15;;;;;;;14.11;48.56;100084.03;4331129;33;35055;-88
2022/07/18 02:09:50;;;;;;;2.35;1.27;;;;;;;13.96;50.21;100092.94;4326568;33;35100;-88
2022/07/18 02:12:18;;;;;;;1.67;1.08;;;;;;;14.28;49.83;100097.78;4348980;33;33579;-88
2022/07/18 02:14:46;;;;;;;1.00;1.00;;;;;;;14.51;49.95;100084.34;4332524;33;33929;-88
2022/07/18 02:17:15;;;;;;;0.93;0.90;;;;;;;14.18;49.71;100090.91;4348765;33;34989;-88
2022/07/18 02:19:43;;;;;;;2.30;1.27;;;;;;;14.50;48.69;100086.97;4347317;33;34386;-88
2022/07/18 02:22:11;;;;;;;1.95;1.12;;;;;;;14.14;49.54;100091.84;4335626;33;33518;-88
2022/07/18 02:24:39;;;;;;;2.60;1.50;;;;;;;14.53;49.35;100092.19;4345449;33;33979;-88
2022/07/18 02:27:07;;;;;;;2.97;1.40;;;;;;;14.26;48.50;100096.03;4335371;33;35751;-88
2022/07/18 02:29:36;;;;;;;2.28;1.42;;;;;;;14.43;48.62;100094.06;4345473;33;35294;-88
2022/07/18 02:32:04;;;;;;;2.65;1.00;;;;;;;14.68;48.26;100097.25;4335364;33;34366;-88
2022/07/18 02:34:32;;;;;;;1.77;1.00;;;;;;;14.43;49.21;100087.97;4347687;33;33771;-87
2022/07/18 02:37:01;;;;;;;2.25;1.23;;;;;;;14.74;48.11;100091.03;4323142;33;34605;-88
2022/07/18 02:39:29;;;;;;;4.03;1.40;;;;;;;15.06;46.92;100087.00;4348771;33;34960;-88
2022/07/18 02:41:57;;;;;;;1.77;1.23;;;;;;;14.31;48.77;100084.63;4345857;33;34807;-88
2022/07/18 02:44:26;;;;;;;2.25;1.05;;;;;;;13.83;50.07;100085.22;4347386;33;33982;-88
2022/07/18 02:46:54;;;;;;;1.98;1.25;;;;;;;13.88;50.49;100092.19;4347124;33;35144;-87
2022/07/18 02:49:28;;;;;;;2.90;1.17;;;;;;;14.59;48.36;100082.50;4348655;33;35052;-88
2022/07/18 02:51:58;;;;;;;1.40;1.10;;;;;;;14.64;49.07;100092.06;4333997;33;33412;-88
2022/07/18 02:54:28;;;;;;;2.67;1.45;;;;;;;14.29;49.67;100094.25;4335346;33;33515;-88
2022/07/18 02:56:56;;;;;;;1.45;1.10;;;;;;;14.14;49.89;100094.47;4331539;33;35918;-88
2022/07/18 02:59:25;;;;;;;1.37;1.10;;;;;;;14.34;49.17;100094.19;4345790;33;35255;-88
2022/07/18 03:01:54;;;;;;;2.17;1.37;;;;;;;13.89;49.84;100093.91;4333801;33;34412;-87
2022/07/18 03:04:22;;;;;;;1.48;1.10;;;;;;;13.55;52.04;100094.28;4348649;33;33988;-88
2022/07/18 03:06:51;;;;;;;1.85;1.27;;;;;;;14.08;50.85;100094.53;4333834;33;34590;-88
2022/07/18 03:09:19;;;;;;;3.40;1.27;;;;;;;14.01;50.50;100093.75;4348454;33;34365;-88
2022/07/18 03:11:47;;;;;;;4.90;1.62;;;;;;;12.94;53.62;100091.37;4327753;33;34130;-88
2022/07/18 03:14:15;;;;;;;3.08;1.80;;;;;;;13.83;51.28;100095.69;4333715;33;33848;-87
2022/07/18 03:16:43;;;;;;;2.33;1.25;;;;;;;13.91;51.46;100098.25;4333808;33;35833;-88
2022/07/18 03:19:11;;;;;;;2.22;1.08;;;;;;;13.44;52.12;100095.28;4348467;33;34389;-88
2022/07/18 03:21:39;;;;;;;2.30;1.48;;;;;;;13.60;51.53;100092.50;4346798;33;33659;-89
2022/07/18 03:24:07;;;;;;;2.50;1.20;;;;;;;13.30;54.12;100093.66;4335280;33;34400;-88
2022/07/18 03:26:35;;;;;;;2.65;1.45;;;;;;;12.94;55.18;100096.59;4333609;33;35892;-87
2022/07/18 03:29:03;;;;;;;3.28;1.40;;;;;;;13.41;53.61;100091.81;4346939;33;35186;-88
2022/07/18 03:31:32;;;;;;;1.85;1.15;;;;;;;13.38;53.56;100097.97;4333538;33;33875;-89
2022/07/18 03:34:01;;;;;;;3.00;1.30;;;;;;;13.32;54.22;100098.00;4346634;33;33665;-89
2022/07/18 03:36:29;;;;;;;1.50;1.25;;;;;;;13.39;54.33;100098.81;4333592;33;34599;-89
2022/07/18 03:38:58;;;;;;;3.80;1.30;;;;;;;13.34;54.22;100096.28;4322777;33;34171;-90
2022/07/18 03:41:26;;;;;;;1.23;1.10;;;;;;;14.02;51.58;100101.59;4322328;33;32517;-88
2022/07/18 03:43:54;;;;;;;4.70;1.40;;;;;;;13.84;51.62;100102.69;4320175;33;32772;-88
2022/07/18 03:46:22;;;;;;;1.75;1.23;;;;;;;14.22;52.06;100105.69;4327578;33;34176;-88
2022/07/18 03:48:53;;;;;;;3.80;1.52;;;;;;;14.33;51.81;100102.94;4321304;33;33642;-88
2022/07/18 03:51:25;;;;;;;3.80;1.75;;;;;;;14.35;52.73;100107.28;4321784;33;34361;-88
2022/07/18 03:53:54;;;;;;;4.55;1.58;;;;;;;14.28;53.10;100107.41;4333537;33;34670;-88
2022/07/18 03:56:22;;;;;;;2.55;1.37;;;;;;;14.44;53.27;100108.91;4332769;33;34356;-88
2022/07/18 03:58:50;;;;;;;2.22;1.27;;;;;;;14.82;52.08;100110.09;4320974;33;35231;-88
2022/07/18 04:01:18;;;;;;;1.75;1.20;;;;;;;14.73;52.57;100118.13;4332935;33;32771;-88
2022/07/18 04:03:47;;;;;;;1.42;1.27;;;;;;;14.97;51.99;100114.25;4321200;33;34270;-87
2022/07/18 04:06:15;;;;;;;2.40;1.50;;;;;;;14.75;51.02;100111.09;4320699;33;34551;-88
2022/07/18 04:08:43;;;;;;;3.58;1.42;;;;;;;14.76;53.56;100120.69;4334239;33;33438;-88
2022/07/18 04:11:12;;;;;;;4.05;1.25;;;;;;;15.44;51.64;100130.06;4326833;33;33639;-89
2022/07/18 04:13:45;;;;;;;4.35;1.20;;;;;;;15.66;51.64;100120.91;4347778;33;34002;-89
2022/07/18 04:16:13;;;;;;;3.55;1.20;;;;;;;15.83;51.64;100119.72;4332798;33;34971;-88
2022/07/18 04:18:41;;;;;;;3.33;1.33;;;;;;;16.20;51.26;100127.75;4332757;33;34383;-88
2022/07/18 04:21:09;;;;;;;2.53;1.35;;;;;;;16.27;50.57;100129.34;4334349;33;33273;-89
2022/07/18 04:23:38;;;;;;;2.10;1.85;;;;;;;16.23;52.06;100132.06;4331171;33;33560;-88
2022/07/18 04:26:07;;;;;;;2.58;1.23;;;;;;;16.25;52.01;100131.13;4321951;33;34238;-89
2022/07/18 04:28:35;;;;;;;1.40;1.10;;;;;;;16.78;50.91;100125.56;4320779;33;34143;-90
2022/07/18 04:31:04;;;;;;;3.25;1.30;;;;;;;16.82;51.21;100127.22;4333988;33;33681;-86
2022/07/18 04:33:34;;;;;;;7.50;1.60;;;;;;;17.14;50.42;100133.50;4347579;33;33319;-88
2022/07/18 04:36:02;;;;;;;11.43;1.80;;;;;;;17.33;50.39;100139.16;4349284;33;34935;-90
2022/07/18 04:38:34;;;;;;;22.45;2.10;;;;;;;17.75;50.63;100135.41;4347839;33;34460;-91
2022/07/18 04:41:02;;;;;;;10.13;1.70;;;;;;;18.12;49.37;100135.25;4349412;33;33585;-88
2022/07/18 04:43:30;;;;;;;3.62;1.58;;;;;;;17.96;50.05;100128.72;4331989;33;34400;-85
2022/07/18 04:45:58;;;;;;;5.80;1.58;;;;;;;18.03;49.44;100130.25;4310807;33;34165;-87
2022/07/18 04:48:26;;;;;;;7.03;1.70;;;;;;;18.84;47.76;100131.38;4320654;33;34365;-89
2022/07/18 04:50:55;;;;;;;8.43;1.92;;;;;;;19.04;48.40;100134.25;4323698;33;33025;-87
2022/07/18 04:53:23;;;;;;;7.05;1.60;;;;;;;18.96;47.94;100130.12;4323258;33;33856;-88
2022/07/18 04:55:51;;;;;;;10.70;1.80;;;;;;;19.47;47.51;100132.78;4323089;33;35101;-89
2022/07/18 04:58:19;;;;;;;3.45;1.40;;;;;;;19.83;43.31;100134.19;4328405;33;35132;-88
2022/07/18 05:00:48;;;;;;;3.42;1.33;;;;;;;20.30;40.09;100136.00;4319681;33;34469;-91
2022/07/18 05:03:16;;;;;;;3.28;1.50;;;;;;;20.63;39.93;100129.44;4318732;33;33931;-87
2022/07/18 05:05:44;;;;;;;2.53;1.73;;;;;;;21.12;38.58;100131.00;4348818;33;35445;-87
2022/07/18 05:08:13;;;;;;;2.62;1.10;;;;;;;20.84;38.83;100126.81;4348941;33;34009;-88
2022/07/18 05:10:41;;;;;;;5.22;1.20;;;;;;;20.81;38.87;100127.81;4348096;33;34023;-90
2022/07/18 05:13:10;;;;;;;4.85;2.35;;;;;;;21.63;36.52;100126.22;4349195;33;33747;-89
2022/07/18 05:15:38;;;;;;;3.65;1.20;;;;;;;21.50;37.76;100133.84;4347492;33;34866;-88
2022/07/18 05:18:07;;;;;;;6.28;1.20;;;;;;;22.11;35.81;100128.47;4340044;33;34532;-84
2022/07/18 05:20:35;;;;;;;3.15;1.20;;;;;;;21.76;35.89;100140.66;4345805;33;33377;-87
2022/07/18 05:23:14;;;;;;;6.72;1.30;;;;;;;22.50;35.83;100140.84;4335363;33;33617;-86
2022/07/18 05:25:43;;;;;;;2.60;1.20;;;;;;;22.57;34.84;100145.84;4347562;33;34946;-90
2022/07/18 05:28:12;;;;;;;3.25;1.50;;;;;;;22.70;35.47;100139.03;4349029;33;34142;-87
2022/07/18 05:30:42;;;;;;;6.30;1.85;;;;;;;23.20;36.22;100140.16;4347313;33;33572;-85
2022/07/18 05:33:11;;;;;;;6.68;1.30;;;;;;;24.11;33.54;100143.44;4349022;33;33841;-88
2022/07/18 05:35:39;;;;;;;7.68;1.27;;;;;;;23.46;34.76;100139.66;4346112;33;34819;-87
2022/07/18 05:38:07;;;;;;;4.22;1.50;;;;;;;23.51;35.91;100138.56;4348930;33;34052;-88
2022/07/18 05:40:35;;;;;;;3.60;1.40;;;;;;;23.42;34.16;100129.28;4345403;33;33650;-89
2022/07/18 05:43:03;;;;;;;6.05;1.65;;;;;;;23.78;34.38;100130.97;4348104;33;33590;-86
2022/07/18 05:45:31;;;;;;;4.45;1.35;;;;;;;24.90;31.90;100138.16;4332032;33;34542;-86
2022/07/18 05:47:59;;;;;;;4.47;1.70;;;;;;;25.09;31.59;100137.94;4348963;33;34246;-85
2022/07/18 05:50:27;;;;;;;2.10;1.10;;;;;;;25.07;32.41;100134.50;4347167;33;33643;-86
2022/07/18 05:52:55;;;;;;;2.62;1.30;;;;;;;25.38;30.26;100126.53;4347697;33;33998;-85
2022/07/18 05:55:23;;;;;;;4.15;1.33;;;;;;;25.08;30.44;100135.37;4347170;33;36003;-86
2022/07/18 05:57:53;;;;;;;2.10;1.10;;;;;;;25.65;29.76;100126.69;4346770;33;34487;-86
2022/07/18 06:00:21;;;;;;;7.25;1.30;;;;;;;25.53;30.36;100131.78;4333955;33;33308;-88
2022/07/18 06:02:50;;;;;;;3.72;1.12;;;;;;;25.61;29.62;100134.00;4348867;33;33636;-88
2022/07/18 06:05:18;;;;;;;2.33;1.00;;;;;;;26.20;30.35;100122.41;4346108;33;34634;-87
2022/07/18 06:07:51;;;;;;;2.70;1.35;;;;;;;25.73;29.10;100132.37;4344836;33;35032;-86
2022/07/18 06:10:19;;;;;;;2.17;1.15;;;;;;;25.79;28.60;100126.69;4327877;33;33676;-92
2022/07/18 06:12:49;;;;;;;3.17;1.30;;;;;;;26.43;28.30;100120.94;4348802;33;33993;-89
2022/07/18 06:15:18;;;;;;;3.28;1.05;;;;;;;26.22;28.40;100129.38;4347037;33;35845;-85
2022/07/18 06:17:47;;;;;;;1.87;1.05;;;;;;;26.31;27.96;100135.94;4346995;33;34353;-88
2022/07/18 06:20:15;;;;;;;3.97;1.55;;;;;;;26.43;26.90;100132.47;4347029;33;33563;-86
2022/07/18 06:22:43;;;;;;;3.58;1.90;;;;;;;26.59;27.51;100132.34;4335517;33;33900;-85
2022/07/18 06:25:12;;;;;;;4.20;1.15;;;;;;;26.13;27.23;100132.63;4332438;33;35228;-86
2022/07/18 06:27:39;;;;;;;2.15;1.40;;;;;;;27.05;26.77;100128.50;4335449;33;34466;-87
2022/07/18 06:30:09;;;;;;;3.53;1.00;;;;;;;26.62;26.90;100136.69;4329286;33;33508;-92
2022/07/18 06:32:38;;;;;;;2.47;0.95;;;;;;;26.52;26.59;100131.03;4319168;33;34161;-88
2022/07/18 06:35:07;;;;;;;3.50;1.37;;;;;;;27.62;26.60;100128.19;4325391;33;34928;-88
2022/07/18 06:37:35;;;;;;;5.68;2.95;;;;;;;27.10;26.88;100126.38;4333579;33;34606;-89
2022/07/18 06:40:05;;;;;;;3.35;1.37;;;;;;;26.77;26.99;100125.00;4320774;33;34442;-87
2022/07/18 06:42:33;;;;;;;5.55;1.27;;;;;;;26.42;27.81;100124.56;4333784;33;33745;-87
2022/07/18 06:45:03;;;;;;;6.12;1.55;;;;;;;27.30;26.62;100122.41;4333868;33;34734;-85
2022/07/18 06:47:39;;;;;;;3.67;1.05;;;;;;;26.50;26.76;100119.59;4333837;33;35256;-84
2022/07/18 06:50:08;;;;;;;1.85;1.08;;;;;;;27.40;25.94;100127.97;4342070;33;34692;-85
2022/07/18 06:52:38;;;;;;;3.67;1.20;;;;;;;27.42;27.82;100116.22;4348479;33;34845;-86
2022/07/18 06:55:07;;;;;;;5.68;1.30;;;;;;;28.10;25.17;100122.22;4337628;33;35902;-88
2022/07/18 06:57:35;;;;;;;3.03;1.23;;;;;;;28.11;25.30;100125.72;4333515;33;34234;-84
2022/07/18 07:00:04;;;;;;;3.45;1.20;;;;;;;28.69;25.12;100123.34;4333608;33;33675;-84
2022/07/18 07:02:33;;;;;;;2.08;1.08;;;;;;;27.96;25.03;100123.19;4333548;33;33984;-83
2022/07/18 07:05:03;;;;;;;6.28;1.10;;;;;;;28.61;24.11;100128.41;4333714;33;36012;-83
2022/07/18 07:07:33;;;;;;;3.42;1.23;;;;;;;27.64;26.43;100120.06;4333538;33;33851;-83
2022/07/18 07:10:03;;;;;;;4.85;1.15;;;;;;;28.54;24.90;100126.19;4340798;33;33647;-82
2022/07/18 07:12:38;;;;;;;6.62;1.10;;;;;;;28.78;24.62;100117.28;4346872;33;33985;-82
2022/07/18 07:15:08;;;;;;;2.12;1.52;;;;;;;28.32;26.17;100120.66;4331768;33;35649;-83
2022/07/18 07:17:38;;;;;;;3.62;1.20;;;;;;;27.99;25.80;100124.81;4348241;33;34139;-82
2022/07/18 07:20:07;;;;;;;4.80;1.27;;;;;;;28.57;24.59;100118.91;4346385;33;33686;-84
2022/07/18 07:22:52;;;;;;;12.52;1.50;;;;;;;28.39;26.66;100119.25;4335084;33;33581;-83
2022/07/18 07:25:21;;;;;;;4.97;1.35;;;;;;;28.05;26.14;100116.31;4346700;33;35561;-85
2022/07/18 07:27:50;;;;;;;3.95;1.10;;;;;;;28.06;25.55;100115.37;4346670;33;35154;-83
2022/07/18 07:30:19;;;;;;;5.37;1.23;;;;;;;29.20;24.98;100117.75;4330043;33;33650;-82
2022/07/18 07:32:47;;;;;;;7.62;1.62;;;;;;;27.99;26.44;100114.09;4319139;33;34047;-82
2022/07/18 07:35:17;;;;;;;3.12;1.20;;;;;;;28.84;25.05;100113.34;4343533;33;34894;-84
2022/07/18 07:37:48;;;;;;;3.22;2.20;;;;;;;28.50;24.79;100113.97;4333116;33;35332;-83
2022/07/18 07:40:16;;;;;;;7.75;3.58;;;;;;;27.89;25.27;100110.31;4340065;33;35076;-81
2022/07/18 07:42:44;;;;;;;3.87;1.67;;;;;;;28.09;25.61;100116.97;4348031;33;34074;-83
2022/07/18 07:45:14;;;;;;;2.12;1.10;;;;;;;28.45;25.10;100116.13;4344863;33;35141;-84
2022/07/18 07:47:43;;;;;;;7.12;1.58;;;;;;;29.11;24.03;100110.38;4346414;33;34469;-81
2022/07/18 07:50:12;;;;;;;4.32;1.42;;;;;;;29.15;24.90;100111.00;4344571;33;34399;-81
2022/07/18 07:52:41;;;;;;;3.72;1.60;;;;;;;28.55;25.21;100116.31;4345790;33;35442;-84
2022/07/18 07:55:09;;;;;;;9.80;1.48;;;;;;;28.64;25.11;100112.13;4346182;33;35005;-82
2022/07/18 07:57:37;;;;;;;6.80;1.40;;;;;;;28.36;25.74;100112.28;4347773;33;34490;-83
2022/07/18 08:00:08;;;;;;;2.97;1.30;;;;;;;28.85;24.33;100113.19;4335919;33;214259;-82
2022/07/18 08:02:50;;;;;;;3.60;1.30;;;;;;;28.72;25.37;100115.09;4346044;33;33815;-82
2022/07/18 08:05:27;;;;;;;4.12;1.25;;;;;;;28.61;24.59;100120.38;4341381;33;35758;-82
2022/07/18 08:07:57;;;;;;;4.20;1.30;;;;;;;28.56;25.56;100126.09;4331419;33;34968;-82
2022/07/18 08:10:26;;;;;;;5.45;1.70;;;;;;;28.54;26.15;100117.31;4323471;33;33995;-83
2022/07/18 08:12:54;;;;;;;4.45;1.30;;;;;;;29.50;24.20;100116.38;4334756;33;34621;-84
2022/07/18 08:15:22;;;;;;;4.32;1.10;;;;;;;29.47;24.93;100114.78;4331272;33;34616;-83
2022/07/18 08:17:50;;;;;;;2.20;1.20;;;;;;;29.40;24.04;100112.69;4347714;33;34187;-82
2022/07/18 08:20:19;;;;;;;5.10;1.10;;;;;;;29.69;22.49;100116.62;4346107;33;33618;-83
2022/07/18 08:23:01;;;;;;;1.80;1.10;;;;;;;29.32;23.82;100109.75;4347473;33;33529;-85
2022/07/18 08:25:31;;;;;;;5.60;1.65;;;;;;;29.25;22.59;100110.22;4329737;33;35145;-87
2022/07/18 08:28:00;;;;;;;3.60;1.00;;;;;;;30.12;22.21;100108.88;4347546;33;34768;-87
2022/07/18 08:30:28;;;;;;;2.35;1.20;;;;;;;29.73;23.05;100111.03;4332328;33;33142;-84
2022/07/18 08:32:58;;;;;;;2.00;1.02;;;;;;;30.75;21.62;100107.28;4342298;33;33611;-84
2022/07/18 08:35:28;;;;;;;2.75;1.20;;;;;;;30.49;23.19;100111.28;4345893;33;34614;-83
2022/07/18 08:37:56;;;;;;;3.78;1.05;;;;;;;31.35;20.04;100109.50;4347553;33;34067;-84
2022/07/18 08:40:24;;;;;;;2.05;1.20;;;;;;;30.28;21.43;100106.62;4346083;33;33836;-84
2022/07/18 08:42:54;;;;;;;2.12;1.10;;;;;;;29.69;23.14;100113.94;4332978;33;33935;-84
2022/07/18 08:45:43;;;;;;;4.47;1.10;;;;;;;30.76;21.91;100109.00;4346209;33;35819;-84
2022/07/18 08:48:17;;;;;;;3.62;1.10;;;;;;;29.73;23.77;100117.25;4345964;33;34634;-85
2022/07/18 08:50:47;;;;;;;1.37;1.10;;;;;;;29.77;22.50;100096.41;4332848;33;34379;-85
2022/07/18 08:53:17;;;;;;;3.30;1.02;;;;;;;31.06;20.17;100109.28;4334178;33;34656;-84
2022/07/18 08:55:45;;;;;;;1.85;1.05;;;;;;;31.07;21.27;100109.16;4332604;33;37154;-84
2022/07/18 08:58:15;;;;;;;2.35;1.20;;;;;;;30.61;22.04;100113.81;4333803;33;33197;-84
2022/07/18 09:01:02;;;;;;;2.17;1.00;;;;;;;30.59;20.12;100112.25;4345664;33;33678;-85
2022/07/18 09:03:31;;;;;;;3.40;1.00;;;;;;;30.76;21.57;100117.06;4345874;33;33996;-84
2022/07/18 09:06:07;;;;;;;1.33;0.80;;;;;;;30.57;22.31;100123.13;4344127;33;35855;-84
2022/07/18 09:08:36;;;;;;;1.92;0.90;;;;;;;30.42;22.13;100117.16;4347017;33;34679;-85
2022/07/18 09:11:10;;;;;;;4.28;1.10;;;;;;;31.35;21.76;100107.66;4345477;33;33738;-84
2022/07/18 09:13:58;;;;;;;3.62;1.08;;;;;;;30.77;22.06;100108.00;4347143;33;34022;-84
2022/07/18 09:16:27;;;;;;;2.33;1.15;;;;;;;31.23;20.96;100111.37;4339035;33;35158;-84
2022/07/18 09:18:55;;;;;;;1.20;1.02;;;;;;;31.52;20.82;100108.06;4335987;33;34367;-84
2022/07/18 09:21:23;;;;;;;2.45;1.25;;;;;;;32.04;20.21;100110.72;4347627;33;34022;-83
2022/07/18 09:23:54;;;;;;;1.23;1.10;;;;;;;32.50;19.68;100106.62;4347763;33;34396;-84
2022/07/18 09:26:46;;;;;;;1.98;1.00;;;;;;;32.26;18.08;100104.28;4347635;33;35188;-83
2022/07/18 09:29:15;;;;;;;4.90;1.00;;;;;;;32.69;17.70;100109.38;4349330;33;34516;-83
2022/07/18 09:32:04;;;;;;;3.53;1.10;;;;;;;32.24;20.56;100107.12;4319861;33;33757;-84
2022/07/18 09:34:38;;;;;;;3.15;1.20;;;;;;;33.21;17.32;100113.66;4320681;33;33720;-87
2022/07/18 09:37:13;;;;;;;2.90;1.10;;;;;;;32.17;20.48;100103.28;4347731;33;35079;-86
2022/07/18 09:39:41;;;;;;;2.85;0.77;;;;;;;32.11;19.88;100109.22;4347672;33;34190;-84
2022/07/18 09:42:14;;;;;;;2.35;1.17;;;;;;;31.94;20.19;100103.47;4347788;33;34507;-85
2022/07/18 09:44:57;;;;;;;2.15;1.10;;;;;;;32.53;17.72;100106.34;4334381;33;33816;-85
2022/07/18 09:47:25;;;;;;;3.33;1.20;;;;;;;31.71;20.28;100097.41;4349156;33;34974;-85
2022/07/18 09:49:54;;;;;;;1.02;0.93;;;;;;;31.73;19.72;100098.13;4345374;33;34844;-84
2022/07/18 09:52:23;;;;;;;4.40;1.08;;;;;;;31.58;18.80;100088.69;4347547;33;33589;-85
2022/07/18 09:55:04;;;;;;;2.50;1.15;;;;;;;32.74;18.57;100091.91;4347388;33;33914;-85
2022/07/18 09:57:33;;;;;;;2.12;0.95;;;;;;;32.09;19.89;100086.97;4348973;33;35064;-85
2022/07/18 10:00:02;;;;;;;3.20;1.00;;;;;;;32.77;19.53;100087.09;4345705;33;34680;-85
2022/07/18 10:02:39;;;;;;;3.53;1.10;;;;;;;33.24;18.66;100091.78;4336734;33;33694;-85
2022/07/18 10:05:09;;;;;;;1.87;0.80;;;;;;;32.18;19.48;100088.81;4347136;33;34141;-86
2022/07/18 10:07:37;;;;;;;3.10;1.20;;;;;;;32.58;19.96;100087.03;4346905;33;34687;-83
2022/07/18 10:10:07;;;;;;;3.37;1.17;;;;;;;32.13;20.32;100083.00;4347475;33;34349;-86
2022/07/18 10:12:35;;;;;;;3.95;1.30;;;;;;;34.42;17.70;100079.56;4335638;33;34006;-91
2022/07/18 10:15:04;;;;;;;3.45;1.42;;;;;;;34.33;17.47;100080.47;4345720;33;33294;-84
2022/07/18 10:17:32;;;;;;;3.67;1.10;;;;;;;32.60;19.90;100083.25;4347291;33;35828;-87
2022/07/18 10:20:08;;;;;;;2.60;1.00;;;;;;;33.44;20.09;100073.69;4348257;33;35258;-86
2022/07/18 10:22:42;;;;;;;2.60;1.25;;;;;;;33.52;16.75;100062.19;4335629;33;33581;-85
2022/07/18 10:25:12;;;;;;;7.03;1.17;;;;;;;32.37;19.02;100065.59;4346392;33;33950;-86
2022/07/18 10:27:54;;;;;;;2.72;1.45;;;;;;;32.60;19.73;100069.78;4348377;33;34949;-84
2022/07/18 10:30:46;;;;;;;3.37;1.10;;;;;;;33.41;18.67;100069.44;4347264;33;34372;-84
2022/07/18 10:33:38;;;;;;;3.30;1.35;;;;;;;34.36;17.17;100063.94;4348800;33;34587;-85
2022/07/18 10:36:12;;;;;;;4.55;2.12;;;;;;;34.01;17.50;100060.16;4332719;33;34022;-85
2022/07/18 10:39:08;;;;;;;3.33;1.25;;;;;;;33.88;18.19;100054.22;4348717;33;35628;-84
2022/07/18 10:41:39;;;;;;;3.62;1.30;;;;;;;34.50;16.98;100057.16;4345619;33;35211;-83
2022/07/18 10:44:29;;;;;;;3.08;0.98;;;;;;;35.15;16.51;100043.34;4348752;33;33725;-85
2022/07/18 10:47:03;;;;;;;5.43;1.10;;;;;;;34.73;16.72;100053.03;4347220;33;34881;-84
2022/07/18 10:49:46;;;;;;;10.27;1.10;;;;;;;34.75;15.87;100056.41;4348700;33;35024;-85
2022/07/18 10:52:29;;;;;;;5.97;1.20;;;;;;;34.05;16.81;100042.62;4325241;33;34093;-85
2022/07/18 10:55:06;;;;;;;2.12;0.90;;;;;;;34.69;17.20;100037.22;4347304;33;34450;-84
2022/07/18 10:57:43;;;;;;;2.28;1.30;;;;;;;34.27;16.23;100037.81;4348704;33;34837;-85
2022/07/18 11:00:22;;;;;;;1.40;0.95;;;;;;;34.13;16.41;100039.16;4347016;33;34861;-84
2022/07/18 11:03:00;;;;;;;4.43;1.05;;;;;;;35.19;15.91;100028.50;4348650;33;35160;-84
2022/07/18 11:05:27;;;;;;;2.33;1.23;;;;;;;35.10;15.58;100029.44;4342486;33;33331;-83
2022/07/18 11:08:02;;;;;;;2.05;1.17;;;;;;;34.96;16.00;100032.72;4332921;33;34098;-85
2022/07/18 11:10:51;;;;;;;1.65;0.90;;;;;;;34.14;15.68;100019.25;4335002;33;35838;-84
2022/07/18 11:13:35;;;;;;;1.17;0.90;;;;;;;33.63;14.69;100018.78;4347160;33;34597;-84
2022/07/18 11:16:14;;;;;;;2.35;1.17;;;;;;;33.48;15.14;100014.84;4346982;33;33654;-84
2022/07/18 11:18:43;;;;;;;2.67;0.93;;;;;;;34.79;15.66;100004.69;4348521;33;34796;-85
2022/07/18 11:21:32;;;;;;;1.83;1.00;;;;;;;34.07;14.99;100005.47;4346847;33;35905;-84
2022/07/18 11:24:08;;;;;;;1.48;1.00;;;;;;;33.39;17.62;99994.97;4335945;33;34512;-85
2022/07/18 11:26:47;;;;;;;2.78;0.95;;;;;;;33.20;19.10;99999.47;4346974;33;34334;-85
2022/07/18 11:29:17;;;;;;;1.73;0.95;;;;;;;32.94;15.94;99999.22;4346889;33;34351;-85
2022/07/18 11:31:51;;;;;;;5.78;1.30;;;;;;;33.53;15.46;99993.66;4333482;33;35800;-84
2022/07/18 11:34:21;;;;;;;4.65;1.23;;;;;;;33.52;16.82;99984.72;4335068;33;34573;-82
2022/07/18 11:37:05;;;;;;;3.58;1.20;;;;;;;33.49;15.52;99985.00;4324334;33;32466;-82
2022/07/18 11:39:37;;;;;;;1.50;1.10;;;;;;;34.06;15.13;99987.59;4334558;33;34817;-86
2022/07/18 11:42:05;;;;;;;1.67;1.00;;;;;;;33.21;15.54;99984.94;4310264;33;35925;-83
2022/07/18 11:44:33;;;;;;;3.97;1.15;;;;;;;31.92;17.60;99973.44;4329899;33;34463;-85